M I D A S
Marine Information and Data Acquisition System
Tripno 224 of the Zeeleeuw from 2002-03-01 07:40:00 to 2002-03-01 16:05:00
Back to CruiseResearch ActivitiesStationsMapUnderway DataData graphs

EquipmentUnitsComments
TimeDGPSUTC
LatitudeDGPSDM.mWGS84
LongitudeDGPSDM.mWGS84
SpeedMeteo Stationm/sRelative wind speed
DirectionMeteo StationdegRelative wind direction
TemperatureMeteo Stationdeg CelciusAir temperature
PressureMeteo StationPaAtmospheric pressure
HumidityMeteo Station%Relative humidity
Missing or incorrect values are displayed as -999
Metereological data collected by the RV Zeeleeuw from 2002-03-01 07:40:00 to 2002-03-01 16:05:00
Time Latitude Longitude Speed Direction Temperature Pressure Humidity
2002-03-01 07:50 51°14.388 2°55.029 6.6 180 4.5 100660 92
2002-03-01 07:50 51°14.485 2°54.792 8.1 176 4.5 100660 92
2002-03-01 07:52 51°14.651 2°54.577 6 187 4.5 100660 92
2002-03-01 07:53 51°14.856 2°54.509 3.5 194 4.6 100680 92
2002-03-01 07:54 51°15.054 2°54.536 3.1 186 4.6 100680 92
2002-03-01 07:55 51°15.242 2°54.575 4.3 184 4.7 100680 92
2002-03-01 07:56 51°15.432 2°54.472 4.6 191 4.7 100670 92
2002-03-01 07:57 51°15.638 2°54.432 4.4 185 4.7 100680 92
2002-03-01 07:58 51°15.849 2°54.426 4.4 188 4.8 100680 92
2002-03-01 07:59 51°16.042 2°54.418 1 249 4.8 100690 92
2002-03-01 08:00 51°16.124 2°54.48 2.2 325 4.9 100680 92
2002-03-01 08:01 51°16.165 2°54.519 4.1 318 5 100680 92
2002-03-01 08:02 51°16.194 2°54.534 3.9 293 5.2 100690 93
2002-03-01 08:03 51°16.215 2°54.534 4.8 292 5.2 100690 92
2002-03-01 08:04 51°16.233 2°54.527 4.9 301 5.1 100690 92
2002-03-01 08:05 51°16.246 2°54.517 4.2 291 5.1 100690 92
2002-03-01 08:06 51°16.258 2°54.505 5.1 295 5.1 100700 92
2002-03-01 08:06 51°16.266 2°54.491 4.4 283 5.1 100710 92
2002-03-01 08:07 51°16.274 2°54.475 4.4 286 5.1 100710 92
2002-03-01 08:08 51°16.279 2°54.456 4.5 279 5.1 100710 92
2002-03-01 08:09 51°16.284 2°54.435 4.7 257 5.1 100710 92
2002-03-01 08:11 51°16.287 2°54.41 2.9 238 5.1 100710 92
2002-03-01 08:12 51°16.289 2°54.384 0.6 219 5.2 100720 92
2002-03-01 08:13 51°16.291 2°54.36 2.3 254 5.2 100720 92
2002-03-01 08:14 51°16.291 2°54.335 1.2 244 5.3 100720 92
2002-03-01 08:15 51°16.291 2°54.307 1.4 255 5.2 100720 92
2002-03-01 08:16 51°16.29 2°54.279 1.1 232 5.2 100730 91
2002-03-01 08:17 51°16.288 2°54.252 3 315 5.3 100730 91
2002-03-01 08:18 51°16.286 2°54.222 1.4 230 5.3 100730 91
2002-03-01 08:19 51°16.283 2°54.192 3.2 221 5.3 100730 91
2002-03-01 08:20 51°16.28 2°54.162 3.6 216 5.4 100730 91
2002-03-01 08:21 51°16.278 2°54.134 2.6 218 5.4 100730 91
2002-03-01 08:22 51°16.275 2°54.105 3.1 215 5.4 100730 91
2002-03-01 08:23 51°16.272 2°54.077 3.3 226 5.5 100730 91
2002-03-01 08:23 51°16.269 2°54.049 2.3 202 5.4 100730 91
2002-03-01 08:25 51°16.266 2°54.02 2.4 218 5.5 100730 91
2002-03-01 08:26 51°16.332 2°53.898 7.7 188 5.5 100730 91
2002-03-01 08:26 51°16.484 2°53.668 8.7 181 5.5 100730 91
2002-03-01 08:28 51°16.655 2°53.429 7.7 183 5.6 100720 91
2002-03-01 08:29 51°16.823 2°53.197 9 180 5.7 100730 91
2002-03-01 08:29 51°16.973 2°52.995 7.3 187 5.7 100730 91
2002-03-01 08:31 51°17.145 2°52.813 7.4 180 5.8 100740 91
2002-03-01 08:32 51°17.331 2°52.668 8.5 168 5.9 100730 91
2002-03-01 08:32 51°17.416 2°52.355 11.1 165 6 100720 91
2002-03-01 08:33 51°17.436 2°51.99 11.2 154 6.1 100720 91
2002-03-01 08:34 51°17.293 2°51.736 12 121 6.1 100730 91
2002-03-01 08:35 51°17.074 2°51.824 10 109 6.1 100730 90
2002-03-01 08:36 51°16.869 2°51.997 9.3 110 6 100740 90
2002-03-01 08:37 51°16.668 2°52.177 9.6 110 6 100740 90
2002-03-01 08:38 51°16.467 2°52.372 9.4 106 5.9 100740 89
2002-03-01 08:39 51°16.275 2°52.58 9.6 110 5.9 100740 90
2002-03-01 08:40 51°16.083 2°52.785 9.7 107 5.8 100740 89
2002-03-01 08:41 51°15.896 2°52.988 9.1 103 5.7 100740 89
2002-03-01 08:43 51°15.712 2°53.205 8.3 103 5.7 100740 89
2002-03-01 08:43 51°15.537 2°53.419 8.3 101 5.6 100760 89
2002-03-01 08:44 51°15.362 2°53.639 9.6 115 5.6 100760 90
2002-03-01 08:45 51°15.19 2°53.862 8.9 111 5.5 100760 89
2002-03-01 08:46 51°15.024 2°54.086 8.7 108 5.4 100760 89
2002-03-01 08:47 51°14.879 2°54.291 6.4 112 5.4 100770 89
2002-03-01 08:48 51°14.776 2°54.447 5.7 110 5.3 100770 89
2002-03-01 08:49 51°14.691 2°54.572 6.1 106 5.3 100770 89
2002-03-01 08:50 51°14.616 2°54.689 5.4 96 5.2 100770 89
2002-03-01 08:52 51°14.553 2°54.784 3.5 86 5.1 100770 89
2002-03-01 08:52 51°14.512 2°54.842 4.2 76 5.1 100770 89
2002-03-01 08:53 51°14.479 2°54.884 4.1 67 5.1 100780 89
2002-03-01 08:55 51°14.456 2°54.909 3.5 36 5.2 100780 90
2002-03-01 08:55 51°14.465 2°54.937 0.8 15 5.2 100780 90
2002-03-01 08:56 51°14.566 2°54.969 4.4 184 5.3 100790 90
2002-03-01 08:57 51°14.717 2°54.876 5.4 182 5.4 100790 90
2002-03-01 08:58 51°14.855 2°54.741 5.1 193 5.4 100790 90
2002-03-01 08:59 51°14.941 2°54.607 4.8 196 5.4 100790 90
2002-03-01 09:01 51°14.999 2°54.466 5.9 189 5.4 100800 90
2002-03-01 09:02 51°15.015 2°54.328 5.7 167 5.5 100800 90
2002-03-01 09:03 51°14.983 2°54.24 5.3 141 5.5 100800 89
2002-03-01 09:03 51°14.94 2°54.198 4.1 114 5.5 100800 90
2002-03-01 09:04 51°14.898 2°54.19 3.6 83 5.6 100810 89
2002-03-01 09:06 51°14.865 2°54.206 3.6 59 5.5 100810 89
2002-03-01 09:07 51°14.833 2°54.235 3.2 67 5.5 100810 89
2002-03-01 09:07 51°14.801 2°54.268 3.4 67 5.5 100820 89
2002-03-01 09:09 51°14.767 2°54.307 3.3 57 5.5 100820 89
2002-03-01 09:10 51°14.733 2°54.347 3.7 60 5.5 100820 89
2002-03-01 09:11 51°14.701 2°54.39 3.5 59 5.6 100820 89
2002-03-01 09:11 51°14.676 2°54.436 3.1 55 5.6 100820 89
2002-03-01 09:13 51°14.65 2°54.482 2.9 45 5.6 100820 89
2002-03-01 09:14 51°14.625 2°54.526 3.2 55 5.6 100830 89
2002-03-01 09:14 51°14.601 2°54.569 3.4 58 5.6 100820 89
2002-03-01 09:16 51°14.579 2°54.611 3 58 5.6 100830 89
2002-03-01 09:17 51°14.562 2°54.65 2.5 53 5.7 100830 89
2002-03-01 09:18 51°14.547 2°54.687 3.1 50 5.7 100830 89
2002-03-01 09:19 51°14.534 2°54.722 3.1 37 5.8 100830 89
2002-03-01 09:20 51°14.524 2°54.758 2.3 29 5.8 100830 89
2002-03-01 09:21 51°14.553 2°54.804 1.6 201 5.8 100840 89
2002-03-01 09:22 51°14.588 2°54.648 8.6 143 5.9 100830 88
2002-03-01 09:23 51°14.472 2°54.661 5.4 98 5.8 100830 88
2002-03-01 09:24 51°14.408 2°54.912 5.5 105 5.7 100830 88
2002-03-01 09:25 51°14.328 2°55.151 4.6 127 5.7 100840 88
2002-03-01 09:26 51°14.24 2°55.295 4.6 105 5.7 100840 88
2002-03-01 09:27 51°14.124 2°55.405 4.7 127 5.8 100840 88
2002-03-01 09:28 51°13.996 2°55.5 5.2 123 5.9 100840 89
2002-03-01 09:29 51°13.93 2°55.616 2.4 125 5.9 100840 88
2002-03-01 09:30 51°13.948 2°55.665 1.5 309 6 100840 88
2002-03-01 09:31 51°13.951 2°55.643 2.5 156 6.1 100850 88
2002-03-01 09:32 51°14.047 2°55.521 5.4 154 6.2 100850 88
2002-03-01 09:32 51°14.164 2°55.38 6.8 160 6.2 100850 88
2002-03-01 09:34 51°14.285 2°55.208 6.5 160 6.2 100850 87
2002-03-01 09:35 51°14.378 2°55.015 9.2 154 6.2 100850 87
2002-03-01 09:35 51°14.366 2°54.701 9.5 139 6.2 100840 87
2002-03-01 09:37 51°14.257 2°54.372 10.5 139 6.1 100850 87
2002-03-01 09:38 51°14.156 2°54.038 9.8 141 6.1 100850 87
2002-03-01 09:39 51°14.05 2°53.701 9.4 143 6.1 100850 87
2002-03-01 09:40 51°13.943 2°53.362 9.7 139 6.1 100850 87
2002-03-01 09:41 51°13.835 2°53.018 10.8 139 6.1 100860 87
2002-03-01 09:42 51°13.725 2°52.67 11.2 137 6.2 100860 87
2002-03-01 09:43 51°13.614 2°52.32 12 136 6.2 100860 87
2002-03-01 09:43 51°13.506 2°51.974 10.2 136 6.2 100860 87
2002-03-01 09:45 51°13.395 2°51.615 10.9 136 6.2 100860 87
2002-03-01 09:46 51°13.283 2°51.262 11.1 139 6.3 100860 87
2002-03-01 09:47 51°13.17 2°50.906 10.4 142 6.2 100860 87
2002-03-01 09:48 51°13.056 2°50.554 11 143 6.3 100860 87
2002-03-01 09:49 51°12.941 2°50.203 10.4 140 6.3 100870 88
2002-03-01 09:50 51°12.828 2°49.852 10.6 139 6.4 100870 88
2002-03-01 09:51 51°12.711 2°49.504 12.4 135 6.5 100870 88
2002-03-01 09:52 51°12.596 2°49.156 10.7 134 6.5 100870 88
2002-03-01 09:53 51°12.479 2°48.809 10.4 135 6.5 100870 88
2002-03-01 09:54 51°12.359 2°48.464 12.1 134 6.6 100870 87
2002-03-01 09:55 51°12.24 2°48.117 11 135 6.6 100880 87
2002-03-01 09:56 51°12.12 2°47.772 10.9 136 6.6 100880 87
2002-03-01 09:56 51°12.001 2°47.434 12.3 137 6.7 100890 87
2002-03-01 09:58 51°11.882 2°47.084 10.4 136 6.7 100880 86
2002-03-01 09:59 51°11.763 2°46.742 11.6 139 6.7 100890 86
2002-03-01 10:00 51°11.643 2°46.396 10 137 6.7 100900 86
2002-03-01 10:01 51°11.524 2°46.051 9.9 135 6.7 100900 86
2002-03-01 10:02 51°11.405 2°45.706 10 137 6.8 100900 86
2002-03-01 10:03 51°11.287 2°45.362 10 138 6.8 100900 86
2002-03-01 10:04 51°11.169 2°45.019 10.8 137 6.8 100910 86
2002-03-01 10:05 51°11.053 2°44.677 10.5 138 6.8 100920 86
2002-03-01 10:06 51°10.936 2°44.338 9.7 135 6.9 100910 86
2002-03-01 10:07 51°10.817 2°44.003 9.7 137 6.8 100910 85
2002-03-01 10:08 51°10.698 2°43.673 10.5 134 6.9 100910 85
2002-03-01 10:09 51°10.581 2°43.344 9.4 139 6.8 100930 85
2002-03-01 10:10 51°10.465 2°43.018 8.5 135 6.9 100930 85
2002-03-01 10:11 51°10.364 2°42.682 7.9 130 6.8 100920 84
2002-03-01 10:12 51°10.269 2°42.341 7.2 124 6.8 100930 84
2002-03-01 10:13 51°10.197 2°41.987 7.3 123 6.8 100930 83
2002-03-01 10:14 51°10.135 2°41.625 7.2 117 6.8 100930 82
2002-03-01 10:15 51°10.074 2°41.26 8.3 112 6.8 100930 81
2002-03-01 10:16 51°10.015 2°40.89 7.1 114 6.8 100920 79
2002-03-01 10:17 51°9.964 2°40.514 6.9 111 6.9 100920 77
2002-03-01 10:17 51°9.914 2°40.144 8 113 7 100930 77
2002-03-01 10:18 51°9.863 2°39.766 8.6 116 7.1 100930 76
2002-03-01 10:19 51°9.812 2°39.387 7.2 111 7.1 100930 74
2002-03-01 10:20 51°9.761 2°39.008 7.6 114 7.1 100930 75
2002-03-01 10:21 51°9.71 2°38.627 8.4 111 7.2 100930 74
2002-03-01 10:22 51°9.658 2°38.246 7.8 114 7.2 100930 74
2002-03-01 10:23 51°9.607 2°37.864 7.9 111 7.2 100920 74
2002-03-01 10:24 51°9.555 2°37.48 7.8 113 7.2 100920 73
2002-03-01 10:25 51°9.502 2°37.095 8 108 7.1 100920 72
2002-03-01 10:26 51°9.451 2°36.71 8.1 109 7.1 100930 73
2002-03-01 10:27 51°9.4 2°36.325 7.4 110 7.1 100930 73
2002-03-01 10:28 51°9.348 2°35.937 7.7 111 7.1 100930 73
2002-03-01 10:29 51°9.296 2°35.55 8.7 112 7.1 100930 73
2002-03-01 10:30 51°9.264 2°35.162 9.8 120 7.1 100930 73
2002-03-01 10:32 51°9.361 2°34.813 8.9 125 7.2 100930 72
2002-03-01 10:32 51°9.492 2°34.506 10 124 7.3 100930 73
2002-03-01 10:33 51°9.628 2°34.197 10.1 126 7.3 100930 73
2002-03-01 10:34 51°9.818 2°34.059 10.6 145 7.4 100940 73
2002-03-01 10:35 51°9.984 2°34.244 10.9 146 7.4 100930 73
2002-03-01 10:36 51°10.146 2°34.46 9.9 150 7.4 100930 73
2002-03-01 10:37 51°10.304 2°34.683 10.3 149 7.5 100930 73
2002-03-01 10:38 51°10.459 2°34.905 11.3 152 7.4 100930 71
2002-03-01 10:39 51°10.623 2°35.113 10.3 155 7.5 100940 72
2002-03-01 10:40 51°10.784 2°35.326 11.4 149 7.6 100940 72
2002-03-01 10:41 51°10.949 2°35.533 10.5 155 7.5 100940 72
2002-03-01 10:42 51°11.115 2°35.736 10.7 153 7.5 100940 72
2002-03-01 10:43 51°11.279 2°35.944 11.2 149 7.5 100940 72
2002-03-01 10:44 51°11.444 2°36.149 10.4 144 7.5 100940 71
2002-03-01 10:45 51°11.608 2°36.354 9.6 143 7.5 100940 72
2002-03-01 10:46 51°11.775 2°36.555 9.3 146 7.5 100940 72
2002-03-01 10:47 51°11.941 2°36.755 10.7 144 7.5 100940 72
2002-03-01 10:48 51°12.106 2°36.957 11 148 7.5 100950 72
2002-03-01 10:49 51°12.271 2°37.158 10.8 150 7.5 100940 71
2002-03-01 10:50 51°12.438 2°37.358 11.3 150 7.5 100940 70
2002-03-01 10:52 51°12.605 2°37.561 9.6 142 7.5 100950 70
2002-03-01 10:53 51°12.771 2°37.761 10.7 140 7.5 100950 71
2002-03-01 10:54 51°12.934 2°37.966 10.9 148 7.6 100950 72
2002-03-01 10:55 51°13.098 2°38.169 11 147 7.5 100960 71
2002-03-01 10:55 51°13.26 2°38.37 11.5 144 7.5 100950 72
2002-03-01 10:57 51°13.429 2°38.574 11.9 143 7.6 100940 72
2002-03-01 10:58 51°13.621 2°38.701 11.3 141 7.5 100960 71
2002-03-01 10:59 51°13.825 2°38.772 10.6 133 7.5 100960 72
2002-03-01 10:59 51°14.019 2°38.714 10.4 118 7.6 100970 72
2002-03-01 11:01 51°14.127 2°38.411 8.4 107 7.5 100970 72
2002-03-01 11:02 51°14.117 2°38.045 6.1 100 7.4 100980 72
2002-03-01 11:03 51°14.026 2°37.69 6.1 113 7.3 100990 73
2002-03-01 11:04 51°13.92 2°37.34 6 109 7.2 100980 73
2002-03-01 11:05 51°13.818 2°36.99 6.2 102 7.2 100990 73
2002-03-01 11:06 51°13.716 2°36.643 6 110 7.2 100990 73
2002-03-01 11:07 51°13.614 2°36.296 5.7 102 7.3 100980 73
2002-03-01 11:08 51°13.503 2°35.958 5.4 105 7.3 100990 73
2002-03-01 11:09 51°13.386 2°35.627 5.4 116 7.3 100990 73
2002-03-01 11:09 51°13.277 2°35.298 6 112 7.3 101000 72
2002-03-01 11:11 51°13.177 2°34.951 5.7 104 7.3 101000 74
2002-03-01 11:12 51°13.075 2°34.611 5.4 115 7.3 101000 73
2002-03-01 11:13 51°12.975 2°34.277 5 121 7.3 101000 73
2002-03-01 11:13 51°12.876 2°33.95 4.9 119 7.3 101000 72
2002-03-01 11:14 51°12.774 2°33.618 5.2 113 7.3 101010 72
2002-03-01 11:16 51°12.671 2°33.285 4.2 112 7.3 101000 72
2002-03-01 11:16 51°12.569 2°32.963 5.5 113 7.3 101000 72
2002-03-01 11:18 51°12.46 2°32.627 5.4 109 7.3 101000 72
2002-03-01 11:18 51°12.355 2°32.298 5.6 116 7.3 101000 72
2002-03-01 11:19 51°12.251 2°31.961 5.5 109 7.4 101000 72
2002-03-01 11:20 51°12.152 2°31.625 5.5 114 7.3 101010 73
2002-03-01 11:21 51°12.054 2°31.289 5.8 117 7.3 101000 72
2002-03-01 11:22 51°11.957 2°30.953 5.2 120 7.4 101010 72
2002-03-01 11:23 51°11.859 2°30.616 6.1 117 7.4 101010 72
2002-03-01 11:24 51°11.761 2°30.281 6.1 115 7.4 101000 72
2002-03-01 11:25 51°11.666 2°29.948 5.2 115 7.4 101010 72
2002-03-01 11:27 51°11.57 2°29.61 5.3 119 7.4 101010 72
2002-03-01 11:28 51°11.473 2°29.275 4.4 116 7.4 101000 72
2002-03-01 11:29 51°11.381 2°28.947 5.5 116 7.4 101000 72
2002-03-01 11:30 51°11.293 2°28.62 6.7 106 7.4 101000 73
2002-03-01 11:30 51°11.229 2°28.298 5.4 104 7.3 100990 72
2002-03-01 11:31 51°11.22 2°27.963 6.1 104 7.3 100990 73
2002-03-01 11:32 51°11.204 2°27.639 6 108 7.2 101000 72
2002-03-01 11:34 51°11.187 2°27.31 5.7 107 7.2 100990 73
2002-03-01 11:34 51°11.17 2°26.991 5.9 93 7.1 100990 73
2002-03-01 11:35 51°11.153 2°26.665 6 106 7.1 100990 72
2002-03-01 11:36 51°11.137 2°26.334 5.8 98 7.1 100990 73
2002-03-01 11:37 51°11.123 2°26.005 5.1 90 7.1 100990 73
2002-03-01 11:38 51°11.105 2°25.68 5.6 95 7.1 100990 73
2002-03-01 11:39 51°11.154 2°25.373 8.8 107 7.1 100990 73
2002-03-01 11:41 51°11.346 2°25.26 11.7 121 7.2 100980 73
2002-03-01 11:42 51°11.565 2°25.257 11.4 125 7.3 100980 73
2002-03-01 11:43 51°11.789 2°25.255 12.1 120 7.4 100980 73
2002-03-01 11:44 51°12.005 2°25.26 13.7 126 7.5 100970 72
2002-03-01 11:45 51°12.225 2°25.263 11.1 129 7.5 100970 72
2002-03-01 11:46 51°12.446 2°25.266 12.9 121 7.5 100980 72
2002-03-01 11:47 51°12.671 2°25.269 12.7 131 7.5 100970 71
2002-03-01 11:48 51°12.891 2°25.292 13.3 134 7.5 100980 71
2002-03-01 11:49 51°13.06 2°25.521 14.7 148 7.5 100980 72
2002-03-01 11:50 51°13.198 2°25.807 14.1 140 7.5 100970 71
2002-03-01 11:51 51°13.344 2°26.101 12.7 141 7.5 100960 71
2002-03-01 11:52 51°13.479 2°26.394 15 146 7.6 100970 72
2002-03-01 11:53 51°13.611 2°26.707 12.7 149 7.6 100960 72
2002-03-01 11:54 51°13.734 2°27.012 13.2 148 7.6 100940 70
2002-03-01 11:55 51°13.865 2°27.317 13.9 143 7.7 100970 71
2002-03-01 11:56 51°13.995 2°27.633 12.9 145 7.7 100960 71
2002-03-01 11:57 51°14.125 2°27.942 13.4 145 7.6 100960 69
2002-03-01 11:58 51°14.255 2°28.253 12.3 151 7.6 100960 69
2002-03-01 11:59 51°14.386 2°28.567 13.1 142 7.7 100960 70
2002-03-01 12:00 51°14.519 2°28.879 12.6 143 7.7 100970 71
2002-03-01 12:01 51°14.651 2°29.193 13.4 143 7.8 100950 71
2002-03-01 12:02 51°14.782 2°29.507 15.2 150 7.7 100970 72
2002-03-01 12:03 51°14.915 2°29.821 13.9 147 7.7 100970 72
2002-03-01 12:04 51°15.049 2°30.135 14.3 143 7.6 100970 72
2002-03-01 12:05 51°15.183 2°30.449 15.7 140 7.6 100970 72
2002-03-01 12:06 51°15.317 2°30.765 13.1 141 7.6 100970 72
2002-03-01 12:07 51°15.452 2°31.082 13.4 142 7.7 100980 72
2002-03-01 12:08 51°15.585 2°31.401 13 145 7.7 100990 71
2002-03-01 12:09 51°15.722 2°31.718 15.2 145 7.7 100970 70
2002-03-01 12:10 51°15.858 2°32.037 17.3 143 7.7 100970 71
2002-03-01 12:11 51°15.997 2°32.353 15.8 139 7.7 100950 74
2002-03-01 12:11 51°16.128 2°32.665 15.2 139 7.7 100970 75
2002-03-01 12:12 51°16.264 2°32.987 18.9 142 7.6 100970 74
2002-03-01 12:13 51°16.285 2°33.357 14.9 186 7.5 100930 75
2002-03-01 12:14 51°16.105 2°33.617 12.1 198 7.4 100970 74
2002-03-01 12:16 51°15.892 2°33.836 11.6 199 7.3 100980 75
2002-03-01 12:16 51°15.689 2°34.044 12.9 203 7.3 100980 75
2002-03-01 12:18 51°15.481 2°34.236 12.1 198 7.3 100990 75
2002-03-01 12:19 51°15.343 2°34.523 18.8 168 7.3 100970 76
2002-03-01 12:20 51°15.466 2°34.81 18.4 135 7.3 100980 75
2002-03-01 12:21 51°15.651 2°35.058 19.6 138 7.2 100990 77
2002-03-01 12:22 51°15.826 2°35.324 18.5 134 7.2 100980 76
2002-03-01 12:23 51°16.001 2°35.59 15.9 134 7.2 100980 77
2002-03-01 12:24 51°16.175 2°35.855 17.1 138 7.2 100980 77
2002-03-01 12:25 51°16.351 2°36.118 16.7 134 7.1 101010 75
2002-03-01 12:26 51°16.525 2°36.384 18.1 135 7.2 100990 76
2002-03-01 12:27 51°16.7 2°36.648 17.6 135 7.2 100990 76
2002-03-01 12:28 51°16.876 2°36.913 16.9 135 7.2 100980 75
2002-03-01 12:29 51°17.05 2°37.179 18.3 134 7.3 100990 77
2002-03-01 12:30 51°17.244 2°37.354 14 96 7.2 100990 77
2002-03-01 12:31 51°17.391 2°37.136 9.9 67 7.1 101000 76
2002-03-01 12:32 51°17.508 2°36.847 9.7 70 7 101020 77
2002-03-01 12:32 51°17.616 2°36.572 9 71 7 101010 77
2002-03-01 12:33 51°17.724 2°36.291 9.3 62 7 101020 77
2002-03-01 12:34 51°17.832 2°36.018 10 61 7 101020 77
2002-03-01 12:35 51°17.939 2°35.75 12.4 76 7 101030 76
2002-03-01 12:36 51°18.05 2°35.477 10.9 68 7 101020 75
2002-03-01 12:38 51°18.166 2°35.2 11.6 70 7 101010 75
2002-03-01 12:39 51°18.283 2°34.928 10 59 7 101020 75
2002-03-01 12:40 51°18.401 2°34.657 11.5 67 7 101010 75
2002-03-01 12:41 51°18.592 2°34.522 15.8 109 7 101010 76
2002-03-01 12:42 51°18.789 2°34.724 17.8 130 7 101010 76
2002-03-01 12:43 51°18.961 2°35.006 17.7 137 7.1 101010 74
2002-03-01 12:44 51°19.117 2°35.316 17.2 134 7.1 101010 75
2002-03-01 12:45 51°19.269 2°35.641 19.5 140 7.1 101010 74
2002-03-01 12:46 51°19.42 2°35.947 16.9 135 7 100990 72
2002-03-01 12:47 51°19.571 2°36.264 19.4 137 7.2 101020 74
2002-03-01 12:47 51°19.72 2°36.577 17.4 138 7.1 101020 74
2002-03-01 12:49 51°19.875 2°36.897 19 135 7.1 101010 73
2002-03-01 12:50 51°20.027 2°37.211 18 132 7.1 101010 74
2002-03-01 12:51 51°20.179 2°37.527 19.2 138 7.1 101000 74
2002-03-01 12:52 51°20.329 2°37.843 19.6 134 7.1 101020 74
2002-03-01 12:53 51°20.482 2°38.154 17 135 7.1 101020 74
2002-03-01 12:54 51°20.634 2°38.472 20 138 7.1 101020 73
2002-03-01 12:55 51°20.785 2°38.786 17.9 142 7 101010 73
2002-03-01 12:56 51°20.941 2°39.093 17.8 135 7 101020 72
2002-03-01 12:57 51°21.149 2°39.26 17.1 119 7 101020 73
2002-03-01 12:58 51°21.374 2°39.37 18.1 120 7 101020 74
2002-03-01 12:59 51°21.595 2°39.501 16.8 119 7 101020 74
2002-03-01 13:00 51°21.815 2°39.627 18.7 118 7 101020 74
2002-03-01 13:01 51°22.037 2°39.754 15.3 114 7 101020 73
2002-03-01 13:02 51°22.26 2°39.884 17 118 7 101030 76
2002-03-01 13:03 51°22.491 2°40.001 19.1 113 7 101030 76
2002-03-01 13:04 51°22.717 2°40.105 16.9 114 7 101030 75
2002-03-01 13:05 51°22.952 2°40.204 15.2 108 6.9 101020 75
2002-03-01 13:06 51°23.184 2°40.304 16.8 117 6.9 101030 75
2002-03-01 13:07 51°23.416 2°40.393 17.8 113 6.9 101030 75
2002-03-01 13:08 51°23.643 2°40.504 18.2 116 6.9 101040 76
2002-03-01 13:09 51°23.876 2°40.623 15.9 113 6.9 101040 77
2002-03-01 13:10 51°24.105 2°40.736 15.7 120 6.9 101030 74
2002-03-01 13:11 51°24.336 2°40.849 18.4 116 6.9 101050 74
2002-03-01 13:12 51°24.564 2°40.922 14.6 110 6.9 101040 72
2002-03-01 13:13 51°24.797 2°40.959 16.5 107 6.8 101040 72
2002-03-01 13:14 51°25.027 2°40.928 12.9 101 6.8 101050 72
2002-03-01 13:15 51°25.261 2°40.929 15.6 104 6.8 101040 73
2002-03-01 13:16 51°25.496 2°40.921 16.4 100 6.8 101040 73
2002-03-01 13:17 51°25.722 2°40.986 15.9 127 6.8 101050 72
2002-03-01 13:18 51°25.932 2°41.18 17.5 122 6.8 101060 71
2002-03-01 13:19 51°26.136 2°41.399 17 135 6.9 101050 71
2002-03-01 13:20 51°26.298 2°41.713 16 132 6.9 101050 70
2002-03-01 13:21 51°26.449 2°42.036 18.3 137 6.9 101060 70
2002-03-01 13:22 51°26.596 2°42.363 20.3 140 7 101070 70
2002-03-01 13:23 51°26.741 2°42.684 17.3 139 7 101050 70
2002-03-01 13:24 51°26.877 2°43.024 19.5 142 7 101050 70
2002-03-01 13:25 51°27.008 2°43.376 19.3 144 7 101040 69
2002-03-01 13:26 51°27.043 2°43.753 16.7 173 7 101050 69
2002-03-01 13:27 51°26.956 2°44.114 16.1 193 7 101050 69
2002-03-01 13:28 51°26.818 2°44.426 13 195 7 101070 69
2002-03-01 13:29 51°26.664 2°44.708 14.6 198 7 101060 69
2002-03-01 13:30 51°26.48 2°44.923 13.2 203 7 101080 69
2002-03-01 13:31 51°26.286 2°45.102 12.5 205 6.9 101090 69
2002-03-01 13:32 51°26.093 2°45.298 11.6 203 7 101070 69
2002-03-01 13:33 51°25.892 2°45.441 8.5 204 6.9 101100 70
2002-03-01 13:34 51°25.696 2°45.594 11.9 209 6.9 101090 70
2002-03-01 13:35 51°25.498 2°45.761 10.4 212 7 101100 70
2002-03-01 13:36 51°25.297 2°45.908 9.4 205 6.9 101100 70
2002-03-01 13:37 51°25.099 2°46.07 10.6 206 6.9 101100 70
2002-03-01 13:38 51°24.897 2°46.227 9.2 210 6.9 101090 70
2002-03-01 13:39 51°24.726 2°46.455 16.4 186 6.9 101080 70
2002-03-01 13:40 51°24.765 2°46.821 17.6 145 7 101070 71
2002-03-01 13:41 51°24.888 2°47.178 19.9 146 7.1 101070 72
2002-03-01 13:42 51°25.011 2°47.537 17.9 145 7 101070 68
2002-03-01 13:43 51°25.132 2°47.897 18.5 144 7 101070 68
2002-03-01 13:44 51°25.255 2°48.258 18.4 141 7 101070 68
2002-03-01 13:45 51°25.385 2°48.612 17.2 139 7 101070 67
2002-03-01 13:46 51°25.513 2°48.971 18.1 143 7 101070 68
2002-03-01 13:47 51°25.643 2°49.331 19.8 140 7 101080 68
2002-03-01 13:48 51°25.771 2°49.691 18 143 7 101070 67
2002-03-01 13:49 51°25.899 2°50.052 18.1 147 7.1 101090 69
2002-03-01 13:50 51°26.085 2°50.266 16.1 94 7 101070 68
2002-03-01 13:51 51°26.276 2°50.112 13.9 79 6.9 101070 69
2002-03-01 13:52 51°26.468 2°49.932 12.8 78 6.9 101080 70
2002-03-01 13:52 51°26.666 2°49.773 12.4 92 6.8 101060 69
2002-03-01 13:54 51°26.871 2°49.608 12.8 87 6.8 101060 68
2002-03-01 13:55 51°27.073 2°49.444 12.6 83 6.7 101070 66
2002-03-01 13:56 51°27.276 2°49.281 11.2 86 6.8 101070 67
2002-03-01 13:57 51°27.48 2°49.113 14 78 6.8 101080 69
2002-03-01 13:58 51°27.678 2°48.956 12.6 86 6.8 101070 68
2002-03-01 13:59 51°27.881 2°48.798 11.5 78 6.8 101080 65
2002-03-01 14:00 51°28.081 2°48.639 12.8 80 6.8 101070 65
2002-03-01 14:01 51°28.286 2°48.487 11.7 85 6.7 101070 65
2002-03-01 14:02 51°28.498 2°48.364 14.4 106 6.8 101080 66
2002-03-01 14:03 51°28.701 2°48.537 19.5 153 6.8 101090 64
2002-03-01 14:04 51°28.795 2°48.918 17 158 6.8 101070 63
2002-03-01 14:05 51°28.87 2°49.304 17.3 158 7 101080 65
2002-03-01 14:06 51°28.949 2°49.704 19.4 152 7 101080 63
2002-03-01 14:07 51°29.027 2°50.099 20 154 7 101090 64
2002-03-01 14:08 51°29.105 2°50.497 18.1 154 7.1 101100 65
2002-03-01 14:09 51°29.181 2°50.881 16.7 160 7.1 101110 64
2002-03-01 14:10 51°29.257 2°51.273 17.6 161 7.1 101100 63
2002-03-01 14:11 51°29.333 2°51.663 17.3 152 7.1 101110 64
2002-03-01 14:12 51°29.388 2°52.062 17.1 168 7.1 101090 64
2002-03-01 14:13 51°29.285 2°52.381 11.5 205 7.1 101100 65
2002-03-01 14:14 51°29.087 2°52.55 9.8 205 7 101140 64
2002-03-01 14:15 51°28.895 2°52.705 9.5 209 7 101130 65
2002-03-01 14:16 51°28.695 2°52.851 11.8 207 6.9 101140 65
2002-03-01 14:17 51°28.494 2°53 10.5 208 7 101150 66
2002-03-01 14:18 51°28.3 2°53.141 9.3 208 6.9 101150 65
2002-03-01 14:19 51°28.094 2°53.251 5.9 212 6.9 101150 64
2002-03-01 14:20 51°27.898 2°53.378 11.9 204 6.9 101150 65
2002-03-01 14:21 51°27.699 2°53.514 8.9 206 7 101140 65
2002-03-01 14:22 51°27.501 2°53.642 10.4 199 6.9 101140 64
2002-03-01 14:23 51°27.303 2°53.777 6.7 218 6.9 101150 65
2002-03-01 14:24 51°27.107 2°53.919 10.2 210 7 101140 66
2002-03-01 14:25 51°26.908 2°54.063 9.7 200 6.9 101140 66
2002-03-01 14:26 51°26.711 2°54.204 9.1 205 7 101150 66
2002-03-01 14:27 51°26.51 2°54.353 9.5 203 7 101150 66
2002-03-01 14:28 51°26.31 2°54.49 9.3 209 7 101140 66
2002-03-01 14:29 51°26.111 2°54.641 9.1 207 7 101140 66
2002-03-01 14:30 51°25.908 2°54.774 7.8 205 6.9 101140 65
2002-03-01 14:31 51°25.711 2°54.902 7.3 205 6.9 101150 66
2002-03-01 14:32 51°25.515 2°55.041 5.8 204 7 101140 67
2002-03-01 14:33 51°25.314 2°55.165 10.3 202 7 101140 67
2002-03-01 14:34 51°25.116 2°55.306 10.2 214 7 101130 66
2002-03-01 14:35 51°24.912 2°55.429 10 206 6.9 101150 65
2002-03-01 14:36 51°24.71 2°55.562 10.4 204 6.9 101140 65
2002-03-01 14:37 51°24.504 2°55.704 10.5 201 6.9 101140 66
2002-03-01 14:38 51°24.305 2°55.754 1.9 245 6.9 101150 65
2002-03-01 14:39 51°24.103 2°55.705 3.1 220 6.9 101150 65
2002-03-01 14:40 51°23.902 2°55.765 3.2 131 6.9 101140 65
2002-03-01 14:41 51°23.692 2°55.828 3.7 208 6.8 101150 66
2002-03-01 14:42 51°23.489 2°55.883 2.6 223 6.8 101140 66
2002-03-01 14:43 51°23.281 2°55.946 4.7 218 6.8 101150 66
2002-03-01 14:44 51°23.069 2°56.001 3.3 219 6.9 101150 66
2002-03-01 14:45 51°22.864 2°56.072 1.4 237 6.9 101150 68
2002-03-01 14:46 51°22.662 2°56.123 3.4 205 6.9 101150 68
2002-03-01 14:47 51°22.449 2°56.183 3.5 204 6.9 101150 69
2002-03-01 14:48 51°22.231 2°56.242 6.5 226 7 101140 69
2002-03-01 14:49 51°22.026 2°56.305 4.1 214 6.9 101140 67
2002-03-01 14:50 51°21.817 2°56.368 5.6 200 6.9 101140 67
2002-03-01 14:51 51°21.603 2°56.433 5.3 198 6.8 101140 66
2002-03-01 14:52 51°21.39 2°56.497 2.6 211 6.9 101150 68
2002-03-01 14:53 51°21.18 2°56.558 3 219 6.9 101150 66
2002-03-01 14:54 51°20.973 2°56.622 3.5 244 6.8 101150 66
2002-03-01 14:55 51°20.762 2°56.674 5.2 199 6.8 101150 67
2002-03-01 14:56 51°20.552 2°56.735 3.7 228 6.8 101140 67
2002-03-01 14:57 51°20.341 2°56.788 2.1 217 6.9 101150 68
2002-03-01 14:58 51°20.133 2°56.838 3.3 203 6.9 101150 68
2002-03-01 14:59 51°19.92 2°56.897 6.4 199 6.9 101140 68
2002-03-01 15:00 51°19.715 2°56.884 2.6 245 6.8 101160 68
2002-03-01 15:01 51°19.517 2°56.8 6 264 6.8 101150 67
2002-03-01 15:02 51°19.32 2°56.68 2.4 254 6.8 101160 68
2002-03-01 15:03 51°19.177 2°56.456 3.6 356 6.9 101160 70
2002-03-01 15:04 51°19.092 2°56.158 6.1 359 6.9 101160 67
2002-03-01 15:05 51°19.025 2°55.842 4.7 45 6.9 101160 68
2002-03-01 15:06 51°18.959 2°55.525 7 17 6.9 101160 69
2002-03-01 15:07 51°18.889 2°55.22 7.5 21 6.9 101160 68
2002-03-01 15:08 51°18.825 2°54.903 6.7 14 6.9 101160 68
2002-03-01 15:09 51°18.755 2°54.599 5.1 12 6.8 101160 68
2002-03-01 15:10 51°18.69 2°54.285 5.4 11 6.9 101170 68
2002-03-01 15:11 51°18.621 2°53.977 6.1 358 6.8 101170 68
2002-03-01 15:12 51°18.555 2°53.665 7.8 14 6.9 101160 69
2002-03-01 15:13 51°18.491 2°53.356 7.3 19 6.8 101170 67
2002-03-01 15:14 51°18.425 2°53.04 5.1 43 6.8 101170 67
2002-03-01 15:15 51°18.343 2°52.736 5.1 11 6.8 101170 66
2002-03-01 15:16 51°18.256 2°52.439 5.6 356 6.8 101170 66
2002-03-01 15:17 51°18.123 2°52.221 2.4 243 6.8 101170 67
2002-03-01 15:18 51°17.917 2°52.222 3.3 239 6.9 101150 68
2002-03-01 15:19 51°17.704 2°52.259 3.3 240 6.8 101150 68
2002-03-01 15:20 51°17.499 2°52.287 1.5 241 6.8 101150 68
2002-03-01 15:21 51°17.289 2°52.343 4.6 219 6.9 101150 68
2002-03-01 15:22 51°17.093 2°52.472 8.5 211 6.9 101140 70
2002-03-01 15:23 51°16.899 2°52.638 10.2 219 6.9 101130 69
2002-03-01 15:24 51°16.702 2°52.788 7.1 232 6.8 101150 68
2002-03-01 15:25 51°16.525 2°52.994 10.9 206 6.9 101120 68
2002-03-01 15:26 51°16.343 2°53.193 13 200 6.8 101140 68
2002-03-01 15:27 51°16.159 2°53.377 12.9 198 6.9 101140 69
2002-03-01 15:28 51°15.969 2°53.571 13.9 200 6.8 101130 68
2002-03-01 15:29 51°15.777 2°53.746 11.9 209 6.8 101140 68
2002-03-01 15:30 51°15.591 2°53.94 11.9 204 6.8 101140 69
2002-03-01 15:31 51°15.398 2°54.102 9.2 201 6.8 101160 69
2002-03-01 15:32 51°15.21 2°54.287 10.4 218 6.8 101140 68
2002-03-01 15:33 51°15.021 2°54.449 12.5 200 6.9 101160 69
2002-03-01 15:34 51°14.83 2°54.631 12 203 6.9 101160 70
2002-03-01 15:35 51°14.638 2°54.808 10.8 205 6.9 101140 70
2002-03-01 15:36 51°14.449 2°54.967 12.3 201 6.8 101160 69
2002-03-01 15:37 51°14.313 2°55.165 12.6 203 6.9 101140 69
2002-03-01 15:38 51°14.211 2°55.338 10.4 214 6.9 101170 69
2002-03-01 15:39 51°14.095 2°55.433 4.5 212 6.9 101190 69
2002-03-01 15:40 51°13.998 2°55.503 5 199 6.9 101200 70
2002-03-01 15:41 51°13.889 2°55.578 5.9 195 6.9 101190 68
2002-03-01 15:42 51°13.782 2°55.668 5.1 199 6.9 101200 67
2002-03-01 15:43 51°13.729 2°55.759 8.2 201 7 101190 66
2002-03-01 15:44 51°13.704 2°55.832 5.2 217 7 101190 65
2002-03-01 15:45 51°13.689 2°55.895 7.5 166 7 101200 65
2002-03-01 15:46 51°13.688 2°55.903 3.3 239 7.1 101200 65
2002-03-01 15:47 51°13.688 2°55.904 7.4 194 7.1 101200 64